Broad Bottom, Kentucky
Current Conditions -  °F | °C
As of 11:35 AM on Thursday 23 Oct 2014 (Local Time) from KPBX Reporting Station
Overcast Overcast  
Wind Chill: 46°   Ceiling: 3200
Heat Index: 48°   Visibility: 10mi
Dew Point: 41°   Wind: 6mph
Humidity: 77%   Direction: 10°N
Pressure: 30.23"   Gusts: NA
Location:  37.5348°N, 82.513°W
Report Text: KPBX 231535Z AUTO 01005KT 10SM SCT018 OVC032 09/05 A3023 RMK AO2 T00910052
Loading
Personal Weather Stations






























Interactive Weather Map
Tropical Storm Tracking
New forecast layout! Learn more

10-Day Weather Forecast

Advertisements
Track Severe Weather on mobile